sensor_id;sensor_type;location;lat;lon;timestamp;pressure;altitude;pressure_sealevel;temperature;humidity
11190;BME280;5651;50.926;4.718;2022-08-21T00:01:07;101630.34;;;14.51;75.87
11190;BME280;5651;50.926;4.718;2022-08-21T00:03:35;101625.13;;;14.49;76.07
11190;BME280;5651;50.926;4.718;2022-08-21T00:06:01;101626.91;;;14.47;76.10
11190;BME280;5651;50.926;4.718;2022-08-21T00:08:27;101619.06;;;14.44;75.78
11190;BME280;5651;50.926;4.718;2022-08-21T00:10:53;101613.81;;;14.44;76.56
11190;BME280;5651;50.926;4.718;2022-08-21T00:13:19;101610.34;;;14.42;76.04
11190;BME280;5651;50.926;4.718;2022-08-21T00:15:46;101615.59;;;14.40;76.87
11190;BME280;5651;50.926;4.718;2022-08-21T00:18:12;101609.50;;;14.38;76.89
11190;BME280;5651;50.926;4.718;2022-08-21T00:20:39;101608.66;;;14.35;77.33
11190;BME280;5651;50.926;4.718;2022-08-21T00:23:05;101608.66;;;14.35;77.25
11190;BME280;5651;50.926;4.718;2022-08-21T00:25:32;101600.78;;;14.32;76.09
11190;BME280;5651;50.926;4.718;2022-08-21T00:27:58;101599.97;;;14.30;78.55
11190;BME280;5651;50.926;4.718;2022-08-21T00:30:25;101598.25;;;14.27;78.99
11190;BME280;5651;50.926;4.718;2022-08-21T00:32:53;101600.00;;;14.23;79.05
11190;BME280;5651;50.926;4.718;2022-08-21T00:35:25;101593.91;;;14.21;78.85
11190;BME280;5651;50.926;4.718;2022-08-21T00:37:52;101593.97;;;14.15;78.43
11190;BME280;5651;50.926;4.718;2022-08-21T00:40:23;101594.84;;;14.14;78.73
11190;BME280;5651;50.926;4.718;2022-08-21T00:42:50;101600.09;;;14.11;78.01
11190;BME280;5651;50.926;4.718;2022-08-21T00:45:16;101597.50;;;14.08;77.66
11190;BME280;5651;50.926;4.718;2022-08-21T00:47:41;101602.72;;;14.06;77.95
11190;BME280;5651;50.926;4.718;2022-08-21T00:50:09;101598.41;;;14.02;77.88
11190;BME280;5651;50.926;4.718;2022-08-21T00:52:37;101594.06;;;14.00;76.94
11190;BME280;5651;50.926;4.718;2022-08-21T00:55:05;101600.19;;;13.99;76.64
11190;BME280;5651;50.926;4.718;2022-08-21T00:57:40;101594.97;;;13.97;77.01
11190;BME280;5651;50.926;4.718;2022-08-21T01:00:12;101601.91;;;13.98;76.55
11190;BME280;5651;50.926;4.718;2022-08-21T01:02:38;101606.28;;;13.98;77.94
11190;BME280;5651;50.926;4.718;2022-08-21T01:05:04;101602.81;;;13.95;77.23
11190;BME280;5651;50.926;4.718;2022-08-21T01:07:30;101605.44;;;13.94;77.34
11190;BME280;5651;50.926;4.718;2022-08-21T01:09:56;101604.56;;;13.93;77.16
11190;BME280;5651;50.926;4.718;2022-08-21T01:12:23;101600.22;;;13.91;77.90
11190;BME280;5651;50.926;4.718;2022-08-21T01:14:49;101605.50;;;13.88;78.61
11190;BME280;5651;50.926;4.718;2022-08-21T01:17:15;101602.84;;;13.86;78.91
11190;BME280;5651;50.926;4.718;2022-08-21T01:19:42;101604.63;;;13.83;79.09
11190;BME280;5651;50.926;4.718;2022-08-21T01:22:08;101608.16;;;13.78;78.65
11190;BME280;5651;50.926;4.718;2022-08-21T01:24:35;101608.16;;;13.75;78.33
11190;BME280;5651;50.926;4.718;2022-08-21T01:27:02;101602.06;;;13.75;79.25
11190;BME280;5651;50.926;4.718;2022-08-21T01:29:49;101606.44;;;13.71;79.30
11190;BME280;5651;50.926;4.718;2022-08-21T01:32:18;101605.59;;;13.68;77.72
11190;BME280;5651;50.926;4.718;2022-08-21T01:34:46;101608.22;;;13.68;79.06
11190;BME280;5651;50.926;4.718;2022-08-21T01:37:12;101604.75;;;13.64;78.38
11190;BME280;5651;50.926;4.718;2022-08-21T01:39:39;101601.25;;;13.63;78.68
11190;BME280;5651;50.926;4.718;2022-08-21T01:42:06;101596.91;;;13.62;77.78
11190;BME280;5651;50.926;4.718;2022-08-21T01:44:32;101599.50;;;13.64;80.33
11190;BME280;5651;50.926;4.718;2022-08-21T01:47:00;101594.31;;;13.58;78.15
11190;BME280;5651;50.926;4.718;2022-08-21T01:49:28;101603.03;;;13.58;78.33
11190;BME280;5651;50.926;4.718;2022-08-21T01:51:54;101592.53;;;13.61;81.10
11190;BME280;5651;50.926;4.718;2022-08-21T01:54:20;101596.88;;;13.64;79.25
11190;BME280;5651;50.926;4.718;2022-08-21T01:56:47;101602.97;;;13.65;81.13
11190;BME280;5651;50.926;4.718;2022-08-21T01:59:14;101592.50;;;13.65;80.56
11190;BME280;5651;50.926;4.718;2022-08-21T02:01:40;101595.13;;;13.65;80.61
11190;BME280;5651;50.926;4.718;2022-08-21T02:04:07;101590.78;;;13.62;78.36
11190;BME280;5651;50.926;4.718;2022-08-21T02:06:33;101596.91;;;13.62;78.21
11190;BME280;5651;50.926;4.718;2022-08-21T02:09:02;101596.88;;;13.64;79.15
11190;BME280;5651;50.926;4.718;2022-08-21T02:11:28;101592.53;;;13.61;74.95
11190;BME280;5651;50.926;4.718;2022-08-21T02:13:53;101593.41;;;13.60;75.19
11190;BME280;5651;50.926;4.718;2022-08-21T02:16:19;101587.28;;;13.60;76.42
11190;BME280;5651;50.926;4.718;2022-08-21T02:18:45;101587.31;;;13.61;78.08
11190;BME280;5651;50.926;4.718;2022-08-21T02:21:11;101586.41;;;13.61;76.67
11190;BME280;5651;50.926;4.718;2022-08-21T02:23:37;101585.56;;;13.60;77.69
11190;BME280;5651;50.926;4.718;2022-08-21T02:26:06;101582.06;;;13.60;77.37
11190;BME280;5651;50.926;4.718;2022-08-21T02:28:33;101581.19;;;13.59;77.88
11190;BME280;5651;50.926;4.718;2022-08-21T02:30:59;101589.06;;;13.58;75.71
11190;BME280;5651;50.926;4.718;2022-08-21T02:33:27;101581.19;;;13.62;79.39
11190;BME280;5651;50.926;4.718;2022-08-21T02:35:53;101587.28;;;13.63;80.65
11190;BME280;5651;50.926;4.718;2022-08-21T02:38:23;101575.94;;;13.61;77.86
11190;BME280;5651;50.926;4.718;2022-08-21T02:40:50;101574.16;;;13.69;81.33
11190;BME280;5651;50.926;4.718;2022-08-21T02:43:18;101573.31;;;13.66;80.02
11190;BME280;5651;50.926;4.718;2022-08-21T02:45:45;101575.03;;;13.68;78.16
11190;BME280;5651;50.926;4.718;2022-08-21T02:48:13;101574.16;;;13.69;77.96
11190;BME280;5651;50.926;4.718;2022-08-21T02:50:42;101575.03;;;13.71;77.35
11190;BME280;5651;50.926;4.718;2022-08-21T02:53:10;101574.09;;;13.75;79.46
11190;BME280;5651;50.926;4.718;2022-08-21T02:55:37;101576.72;;;13.75;80.75
11190;BME280;5651;50.926;4.718;2022-08-21T02:58:06;101577.59;;;13.79;80.00
11190;BME280;5651;50.926;4.718;2022-08-21T03:00:33;101578.50;;;13.78;79.46
11190;BME280;5651;50.926;4.718;2022-08-21T03:02:59;101578.47;;;13.79;78.99
11190;BME280;5651;50.926;4.718;2022-08-21T03:05:27;101574.09;;;13.82;80.38
11190;BME280;5651;50.926;4.718;2022-08-21T03:07:54;101574.94;;;13.82;81.15
11190;BME280;5651;50.926;4.718;2022-08-21T03:10:21;101575.81;;;13.84;81.02
11190;BME280;5651;50.926;4.718;2022-08-21T03:12:48;101571.47;;;13.82;79.17
11190;BME280;5651;50.926;4.718;2022-08-21T03:15:16;101573.19;;;13.83;81.61
11190;BME280;5651;50.926;4.718;2022-08-21T03:17:43;101575.81;;;13.83;85.85
11190;BME280;5651;50.926;4.718;2022-08-21T03:20:10;101572.41;;;13.74;81.50
11190;BME280;5651;50.926;4.718;2022-08-21T03:22:36;101566.31;;;13.71;78.14
11190;BME280;5651;50.926;4.718;2022-08-21T03:25:03;101574.16;;;13.72;80.48
11190;BME280;5651;50.926;4.718;2022-08-21T03:27:29;101569.75;;;13.76;80.39
11190;BME280;5651;50.926;4.718;2022-08-21T03:29:56;101568.03;;;13.73;82.17
11190;BME280;5651;50.926;4.718;2022-08-21T03:32:23;101569.72;;;13.79;82.93
11190;BME280;5651;50.926;4.718;2022-08-21T03:34:48;101569.72;;;13.79;83.13
11190;BME280;5651;50.926;4.718;2022-08-21T03:37:15;101561.91;;;13.73;79.68
11190;BME280;5651;50.926;4.718;2022-08-21T03:39:41;101561.91;;;13.73;83.49
11190;BME280;5651;50.926;4.718;2022-08-21T03:42:08;101554.91;;;13.72;82.88
11190;BME280;5651;50.926;4.718;2022-08-21T03:44:34;101556.66;;;13.73;81.10
11190;BME280;5651;50.926;4.718;2022-08-21T03:47:00;101555.84;;;13.71;83.15
11190;BME280;5651;50.926;4.718;2022-08-21T03:49:27;101554.13;;;13.65;81.34
11190;BME280;5651;50.926;4.718;2022-08-21T03:51:53;101558.50;;;13.61;77.55
11190;BME280;5651;50.926;4.718;2022-08-21T03:54:19;101554.13;;;13.57;77.30
11190;BME280;5651;50.926;4.718;2022-08-21T03:56:46;101558.50;;;13.58;79.93
11190;BME280;5651;50.926;4.718;2022-08-21T03:59:13;101555.03;;;13.58;83.32
11190;BME280;5651;50.926;4.718;2022-08-21T04:01:39;101548.91;;;13.60;83.67
11190;BME280;5651;50.926;4.718;2022-08-21T04:04:05;101548.03;;;13.61;87.80
11190;BME280;5651;50.926;4.718;2022-08-21T04:06:32;101548.03;;;13.58;83.72
11190;BME280;5651;50.926;4.718;2022-08-21T04:08:58;101545.41;;;13.61;83.49
11190;BME280;5651;50.926;4.718;2022-08-21T04:11:24;101551.50;;;13.62;83.48
11190;BME280;5651;50.926;4.718;2022-08-21T04:13:50;101550.63;;;13.60;79.97
11190;BME280;5651;50.926;4.718;2022-08-21T04:16:15;101557.63;;;13.59;83.47
11190;BME280;5651;50.926;4.718;2022-08-21T04:18:41;101556.78;;;13.54;82.18
11190;BME280;5651;50.926;4.718;2022-08-21T04:21:10;101557.66;;;13.50;81.92
11190;BME280;5651;50.926;4.718;2022-08-21T04:23:37;101565.56;;;13.44;79.79
11190;BME280;5651;50.926;4.718;2022-08-21T04:26:03;101562.94;;;13.44;83.94
11190;BME280;5651;50.926;4.718;2022-08-21T04:28:28;101572.53;;;13.37;80.84
11190;BME280;5651;50.926;4.718;2022-08-21T04:30:55;101573.44;;;13.31;80.41
11190;BME280;5651;50.926;4.718;2022-08-21T04:33:21;101558.59;;;13.34;83.09
11190;BME280;5651;50.926;4.718;2022-08-21T04:35:48;101573.44;;;13.31;82.08
11190;BME280;5651;50.926;4.718;2022-08-21T04:38:15;101571.72;;;13.30;83.54
11190;BME280;5651;50.926;4.718;2022-08-21T04:40:40;101588.31;;;13.28;79.69
11190;BME280;5651;50.926;4.718;2022-08-21T04:43:09;101587.41;;;13.27;82.91
11190;BME280;5651;50.926;4.718;2022-08-21T04:45:41;101586.53;;;13.28;84.19
11190;BME280;5651;50.926;4.718;2022-08-21T04:48:09;101574.28;;;13.34;86.83
11190;BME280;5651;50.926;4.718;2022-08-21T04:53:26;101576.91;;;13.41;86.61
11190;BME280;5651;50.926;4.718;2022-08-21T04:55:56;101579.53;;;13.46;88.83
11190;BME280;5651;50.926;4.718;2022-08-21T04:58:25;101571.63;;;13.49;87.98
11190;BME280;5651;50.926;4.718;2022-08-21T05:00:54;101577.75;;;13.54;88.08
11190;BME280;5651;50.926;4.718;2022-08-21T05:03:21;101577.72;;;13.59;87.23
11190;BME280;5651;50.926;4.718;2022-08-21T05:05:48;101569.81;;;13.63;88.41
11190;BME280;5651;50.926;4.718;2022-08-21T05:08:18;101574.16;;;13.68;88.95
11190;BME280;5651;50.926;4.718;2022-08-21T05:10:45;101584.59;;;13.75;87.18
11190;BME280;5651;50.926;4.718;2022-08-21T05:13:12;101589.81;;;13.80;87.39
11190;BME280;5651;50.926;4.718;2022-08-21T05:15:39;101588.03;;;13.87;89.46
11190;BME280;5651;50.926;4.718;2022-08-21T05:18:05;101587.13;;;13.89;87.43
11190;BME280;5651;50.926;4.718;2022-08-21T05:20:32;101582.75;;;13.91;93.03
11190;BME280;5651;50.926;4.718;2022-08-21T05:23:00;101585.38;;;13.93;89.46
11190;BME280;5651;50.926;4.718;2022-08-21T05:25:27;101587.03;;;14.02;93.18
11190;BME280;5651;50.926;4.718;2022-08-21T05:27:53;101591.41;;;14.03;94.19
11190;BME280;5651;50.926;4.718;2022-08-21T05:30:20;101598.38;;;14.07;91.65
11190;BME280;5651;50.926;4.718;2022-08-21T05:32:46;101586.09;;;14.14;92.59
11190;BME280;5651;50.926;4.718;2022-08-21T05:35:13;101586.06;;;14.18;92.49
11190;BME280;5651;50.926;4.718;2022-08-21T05:37:39;101590.41;;;14.22;91.28
11190;BME280;5651;50.926;4.718;2022-08-21T05:40:05;101592.94;;;14.30;92.19
11190;BME280;5651;50.926;4.718;2022-08-21T05:42:32;101593.78;;;14.35;92.68
11190;BME280;5651;50.926;4.718;2022-08-21T05:44:57;101602.47;;;14.39;90.38
11190;BME280;5651;50.926;4.718;2022-08-21T05:47:23;101596.31;;;14.48;91.42
11190;BME280;5651;50.926;4.718;2022-08-21T05:49:49;101607.59;;;14.54;88.54
11190;BME280;5651;50.926;4.718;2022-08-21T05:52:20;101599.69;;;14.62;87.75
11190;BME280;5651;50.926;4.718;2022-08-21T05:54:46;101596.16;;;14.65;89.23
11190;BME280;5651;50.926;4.718;2022-08-21T05:57:11;101604.88;;;14.70;92.84
11190;BME280;5651;50.926;4.718;2022-08-21T05:59:37;101595.16;;;14.81;88.54
11190;BME280;5651;50.926;4.718;2022-08-21T06:02:03;101602.97;;;14.87;90.54
11190;BME280;5651;50.926;4.718;2022-08-21T06:04:29;101597.72;;;14.87;90.72
11190;BME280;5651;50.926;4.718;2022-08-21T06:06:55;101598.53;;;14.91;90.32
11190;BME280;5651;50.926;4.718;2022-08-21T06:09:21;101601.13;;;14.96;89.63
11190;BME280;5651;50.926;4.718;2022-08-21T06:11:47;101590.56;;;15.02;92.66
11190;BME280;5651;50.926;4.718;2022-08-21T06:14:15;101593.09;;;15.08;91.89
11190;BME280;5651;50.926;4.718;2022-08-21T06:16:42;101604.41;;;15.15;89.64
11190;BME280;5651;50.926;4.718;2022-08-21T06:19:07;101604.25;;;15.30;90.58
11190;BME280;5651;50.926;4.718;2022-08-21T06:21:33;101595.44;;;15.36;89.02
11190;BME280;5651;50.926;4.718;2022-08-21T06:23:59;101604.09;;;15.41;89.47
11190;BME280;5651;50.926;4.718;2022-08-21T06:26:25;101596.09;;;15.52;91.92
11190;BME280;5651;50.926;4.718;2022-08-21T06:28:50;101600.38;;;15.59;89.65
11190;BME280;5651;50.926;4.718;2022-08-21T06:31:22;101609.03;;;15.66;91.76
11190;BME280;5651;50.926;4.718;2022-08-21T06:33:48;101617.72;;;15.71;88.30
11190;BME280;5651;50.926;4.718;2022-08-21T06:36:15;101621.97;;;15.83;89.65
11190;BME280;5651;50.926;4.718;2022-08-21T06:38:40;101627.03;;;15.98;89.75
11190;BME280;5651;50.926;4.718;2022-08-21T06:41:07;101623.38;;;16.07;89.32
11190;BME280;5651;50.926;4.718;2022-08-21T06:43:33;101617.09;;;16.18;87.90
11190;BME280;5651;50.926;4.718;2022-08-21T06:45:59;101614.31;;;16.27;89.71
11190;BME280;5651;50.926;4.718;2022-08-21T06:48:25;101620.28;;;16.37;90.34
11190;BME280;5651;50.926;4.718;2022-08-21T06:50:50;101619.22;;;16.48;86.63
11190;BME280;5651;50.926;4.718;2022-08-21T06:53:18;101623.38;;;16.62;86.85
11190;BME280;5651;50.926;4.718;2022-08-21T06:55:45;101607.47;;;16.68;87.37
11190;BME280;5651;50.926;4.718;2022-08-21T06:58:11;101617.81;;;16.79;88.76
11190;BME280;5651;50.926;4.718;2022-08-21T07:00:43;101611.69;;;16.78;89.88
11190;BME280;5651;50.926;4.718;2022-08-21T07:03:28;101612.34;;;16.93;87.21
11190;BME280;5651;50.926;4.718;2022-08-21T07:05:54;101611.19;;;17.06;84.39
11190;BME280;5651;50.926;4.718;2022-08-21T07:08:20;101612.84;;;17.12;84.58
11190;BME280;5651;50.926;4.718;2022-08-21T07:10:47;101607.31;;;17.24;83.78
11190;BME280;5651;50.926;4.718;2022-08-21T07:13:13;101612.53;;;17.27;85.74
11190;BME280;5651;50.926;4.718;2022-08-21T07:15:39;101611.34;;;17.44;85.73
11190;BME280;5651;50.926;4.718;2022-08-21T07:18:05;101602.31;;;17.56;84.05
11190;BME280;5651;50.926;4.718;2022-08-21T07:20:31;101605.94;;;17.50;87.29
11190;BME280;5651;50.926;4.718;2022-08-21T07:23:00;101601.38;;;17.58;85.60
11190;BME280;5651;50.926;4.718;2022-08-21T07:25:26;101604.72;;;17.65;87.11
11190;BME280;5651;50.926;4.718;2022-08-21T07:27:52;101602.63;;;17.81;85.37
11190;BME280;5651;50.926;4.718;2022-08-21T07:30:18;101606.06;;;17.83;87.67
11190;BME280;5651;50.926;4.718;2022-08-21T07:32:44;101611.84;;;18.01;84.69
11190;BME280;5651;50.926;4.718;2022-08-21T07:35:09;101609.97;;;18.08;85.72
11190;BME280;5651;50.926;4.718;2022-08-21T07:37:35;101610.66;;;18.16;85.43
11190;BME280;5651;50.926;4.718;2022-08-21T07:40:02;101605.00;;;18.31;83.62
11190;BME280;5651;50.926;4.718;2022-08-21T07:42:27;101613.38;;;18.47;84.32
11190;BME280;5651;50.926;4.718;2022-08-21T07:44:54;101606.75;;;18.65;82.24
11190;BME280;5651;50.926;4.718;2022-08-21T07:47:20;101606.69;;;18.68;82.49
11190;BME280;5651;50.926;4.718;2022-08-21T07:49:46;101604.66;;;18.78;81.92
11190;BME280;5651;50.926;4.718;2022-08-21T07:52:12;101599.13;;;18.88;83.80
11190;BME280;5651;50.926;4.718;2022-08-21T07:54:37;101605.63;;;19.09;81.65
11190;BME280;5651;50.926;4.718;2022-08-21T07:57:03;101610.66;;;19.18;82.13
11190;BME280;5651;50.926;4.718;2022-08-21T07:59:29;101603.28;;;19.29;81.77
11190;BME280;5651;50.926;4.718;2022-08-21T08:01:55;101605.00;;;19.30;81.46
11190;BME280;5651;50.926;4.718;2022-08-21T08:04:21;101609.81;;;19.47;79.58
11190;BME280;5651;50.926;4.718;2022-08-21T08:06:47;101600.53;;;19.62;79.65
11190;BME280;5651;50.926;4.718;2022-08-21T08:09:13;101601.09;;;19.72;80.18
11190;BME280;5651;50.926;4.718;2022-08-21T08:11:41;101594.84;;;19.76;81.16
11190;BME280;5651;50.926;4.718;2022-08-21T08:14:09;101594.19;;;19.98;81.25
11190;BME280;5651;50.926;4.718;2022-08-21T08:16:35;101592.84;;;20.11;78.47
11190;BME280;5651;50.926;4.718;2022-08-21T08:19:01;101598.09;;;20.40;76.84
11190;BME280;5651;50.926;4.718;2022-08-21T08:21:28;101598.41;;;20.31;77.60
11190;BME280;5651;50.926;4.718;2022-08-21T08:23:53;101599.63;;;20.47;77.04
11190;BME280;5651;50.926;4.718;2022-08-21T08:26:19;101596.69;;;20.56;77.72
11190;BME280;5651;50.926;4.718;2022-08-21T08:28:45;101591.31;;;20.58;76.30
11190;BME280;5651;50.926;4.718;2022-08-21T08:31:13;101578.25;;;20.79;76.29
11190;BME280;5651;50.926;4.718;2022-08-21T08:33:39;101579.38;;;20.73;75.65
11190;BME280;5651;50.926;4.718;2022-08-21T08:36:05;101578.63;;;20.93;76.31
11190;BME280;5651;50.926;4.718;2022-08-21T08:38:37;101573.44;;;20.90;74.55
11190;BME280;5651;50.926;4.718;2022-08-21T08:41:16;101583.81;;;20.96;75.95
11190;BME280;5651;50.926;4.718;2022-08-21T08:43:50;101569.72;;;20.96;76.00
11190;BME280;5651;50.926;4.718;2022-08-21T08:46:24;101571.50;;;21.19;74.79
11190;BME280;5651;50.926;4.718;2022-08-21T08:48:58;101569.59;;;21.23;71.81
11190;BME280;5651;50.926;4.718;2022-08-21T08:51:46;101571.56;;;21.17;72.33
11190;BME280;5651;50.926;4.718;2022-08-21T08:54:18;101570.06;;;21.10;73.04
11190;BME280;5651;50.926;4.718;2022-08-21T08:56:47;101570.75;;;21.15;71.54
11190;BME280;5651;50.926;4.718;2022-08-21T08:59:18;101575.47;;;21.07;70.42
11190;BME280;5651;50.926;4.718;2022-08-21T09:01:45;101571.59;;;21.16;70.87
11190;BME280;5651;50.926;4.718;2022-08-21T09:04:12;101576.63;;;21.24;71.54
11190;BME280;5651;50.926;4.718;2022-08-21T09:07:05;101562.41;;;21.26;71.01
11190;BME280;5651;50.926;4.718;2022-08-21T09:26:07;101567.66;;;21.74;67.99
11190;BME280;5651;50.926;4.718;2022-08-21T09:28:37;101567.22;;;21.84;68.59
11190;BME280;5651;50.926;4.718;2022-08-21T09:31:07;101563.94;;;21.78;67.18
11190;BME280;5651;50.926;4.718;2022-08-21T09:33:33;101559.00;;;21.68;67.36
11190;BME280;5651;50.926;4.718;2022-08-21T09:35:59;101551.78;;;21.94;66.69
11190;BME280;5651;50.926;4.718;2022-08-21T09:38:36;101556.56;;;21.86;66.94
11190;BME280;5651;50.926;4.718;2022-08-21T09:41:05;101553.16;;;22.05;65.44
11190;BME280;5651;50.926;4.718;2022-08-21T09:43:31;101551.69;;;22.18;66.90
11190;BME280;5651;50.926;4.718;2022-08-21T09:46:21;101553.03;;;22.28;67.58
11190;BME280;5651;50.926;4.718;2022-08-21T09:48:50;101560.31;;;22.45;67.35
11190;BME280;5651;50.926;4.718;2022-08-21T09:51:33;101553.59;;;22.57;66.10
11190;BME280;5651;50.926;4.718;2022-08-21T09:56:33;101539.72;;;22.90;63.26
11190;BME280;5651;50.926;4.718;2022-08-21T09:59:32;101539.34;;;23.19;61.71
11190;BME280;5651;50.926;4.718;2022-08-21T10:02:01;101542.81;;;23.21;61.64
11190;BME280;5651;50.926;4.718;2022-08-21T10:04:35;101532.81;;;23.45;61.15
11190;BME280;5651;50.926;4.718;2022-08-21T10:07:12;101542.50;;;23.65;62.71
11190;BME280;5651;50.926;4.718;2022-08-21T10:09:40;101535.53;;;23.05;60.89
11190;BME280;5651;50.926;4.718;2022-08-21T10:12:21;101538.63;;;23.53;61.70
11190;BME280;5651;50.926;4.718;2022-08-21T10:17:28;101539.63;;;23.51;60.58
11190;BME280;5651;50.926;4.718;2022-08-21T10:22:34;101531.94;;;23.64;62.42
11190;BME280;5651;50.926;4.718;2022-08-21T10:28:00;101532.22;;;23.38;60.39
11190;BME280;5651;50.926;4.718;2022-08-21T10:35:44;101530.91;;;23.66;61.04
11190;BME280;5651;50.926;4.718;2022-08-21T10:38:38;101523.88;;;23.46;58.03
11190;BME280;5651;50.926;4.718;2022-08-21T10:43:59;101525.75;;;23.81;60.14
11190;BME280;5651;50.926;4.718;2022-08-21T10:46:51;101528.22;;;24.03;59.49
11190;BME280;5651;50.926;4.718;2022-08-21T10:52:33;101511.94;;;24.44;57.95
11190;BME280;5651;50.926;4.718;2022-08-21T10:55:08;101519.13;;;24.60;59.77
11190;BME280;5651;50.926;4.718;2022-08-21T10:57:43;101522.50;;;24.46;57.24
11190;BME280;5651;50.926;4.718;2022-08-21T11:00:18;101518.84;;;24.82;57.03
11190;BME280;5651;50.926;4.718;2022-08-21T11:02:52;101527.38;;;24.89;55.85
11190;BME280;5651;50.926;4.718;2022-08-21T11:05:27;101526.53;;;24.88;56.17
11190;BME280;5651;50.926;4.718;2022-08-21T11:08:05;101514.38;;;24.65;54.86
11190;BME280;5651;50.926;4.718;2022-08-21T11:10:42;101518.25;;;24.93;55.09
11190;BME280;5651;50.926;4.718;2022-08-21T11:16:21;101513.53;;;24.98;57.34
11190;BME280;5651;50.926;4.718;2022-08-21T11:21:49;101506.00;;;25.38;53.73
11190;BME280;5651;50.926;4.718;2022-08-21T11:29:35;101513.75;;;25.89;54.31
11190;BME280;5651;50.926;4.718;2022-08-21T11:43:46;101513.19;;;26.15;52.38
11190;BME280;5651;50.926;4.718;2022-08-21T11:46:52;101511.00;;;26.21;52.21
11190;BME280;5651;50.926;4.718;2022-08-21T11:54:47;101496.34;;;26.86;50.30
11190;BME280;5651;50.926;4.718;2022-08-21T11:57:30;101506.00;;;27.31;49.17
11190;BME280;5651;50.926;4.718;2022-08-21T12:02:33;101499.69;;;27.46;49.19
11190;BME280;5651;50.926;4.718;2022-08-21T12:05:05;101488.81;;;27.35;46.85
11190;BME280;5651;50.926;4.718;2022-08-21T12:07:37;101485.84;;;27.67;48.37
11190;BME280;5651;50.926;4.718;2022-08-21T12:10:06;101485.72;;;27.14;47.42
11190;BME280;5651;50.926;4.718;2022-08-21T12:12:35;101487.53;;;27.13;47.13
11190;BME280;5651;50.926;4.718;2022-08-21T12:15:11;101488.38;;;27.56;46.75
11190;BME280;5651;50.926;4.718;2022-08-21T12:17:40;101485.41;;;27.18;46.52
11190;BME280;5651;50.926;4.718;2022-08-21T12:20:22;101479.88;;;27.22;48.00
11190;BME280;5651;50.926;4.718;2022-08-21T12:23:01;101487.94;;;27.34;47.99
11190;BME280;5651;50.926;4.718;2022-08-21T12:25:39;101489.22;;;27.29;48.81
11190;BME280;5651;50.926;4.718;2022-08-21T12:28:11;101487.19;;;27.32;47.82
11190;BME280;5651;50.926;4.718;2022-08-21T12:30:42;101487.94;;;27.49;47.41
11190;BME280;5651;50.926;4.718;2022-08-21T12:33:28;101495.88;;;28.04;47.79
11190;BME280;5651;50.926;4.718;2022-08-21T12:36:10;101492.38;;;28.29;46.49
11190;BME280;5651;50.926;4.718;2022-08-21T12:38:48;101494.56;;;27.96;46.04
11190;BME280;5651;50.926;4.718;2022-08-21T12:41:21;101501.91;;;28.07;46.00
11190;BME280;5651;50.926;4.718;2022-08-21T12:43:57;101487.03;;;27.76;45.62
11190;BME280;5651;50.926;4.718;2022-08-21T12:46:38;101493.59;;;27.44;45.81
11190;BME280;5651;50.926;4.718;2022-08-21T12:49:14;101486.53;;;27.43;45.62
11190;BME280;5651;50.926;4.718;2022-08-21T12:51:57;101489.50;;;27.24;46.05
11190;BME280;5651;50.926;4.718;2022-08-21T12:54:32;101498.50;;;27.23;46.33
11190;BME280;5651;50.926;4.718;2022-08-21T12:57:04;101498.28;;;27.68;47.40
11190;BME280;5651;50.926;4.718;2022-08-21T12:59:31;101497.97;;;27.31;46.19
11190;BME280;5651;50.926;4.718;2022-08-21T13:02:00;101496.19;;;27.31;46.07
11190;BME280;5651;50.926;4.718;2022-08-21T13:04:38;101495.13;;;26.92;45.59
11190;BME280;5651;50.926;4.718;2022-08-21T13:07:08;101497.59;;;27.37;46.25
11190;BME280;5651;50.926;4.718;2022-08-21T13:09:44;101492.34;;;27.35;46.05
11190;BME280;5651;50.926;4.718;2022-08-21T13:12:12;101488.16;;;27.31;45.44
11190;BME280;5651;50.926;4.718;2022-08-21T13:14:41;101490.25;;;26.70;46.43
11190;BME280;5651;50.926;4.718;2022-08-21T13:17:09;101477.94;;;27.24;47.16
11190;BME280;5651;50.926;4.718;2022-08-21T13:19:35;101483.72;;;27.45;47.15
11190;BME280;5651;50.926;4.718;2022-08-21T13:22:02;101486.38;;;27.17;45.16
11190;BME280;5651;50.926;4.718;2022-08-21T13:26:56;101491.81;;;27.16;46.96
11190;BME280;5651;50.926;4.718;2022-08-21T13:29:27;101494.06;;;27.36;45.96
11190;BME280;5651;50.926;4.718;2022-08-21T13:31:56;101494.22;;;26.48;45.56
11190;BME280;5651;50.926;4.718;2022-08-21T13:34:25;101496.66;;;26.96;46.72
11190;BME280;5651;50.926;4.718;2022-08-21T13:36:55;101492.84;;;26.86;46.41
11190;BME280;5651;50.926;4.718;2022-08-21T13:39:23;101499.78;;;27.03;46.04
11190;BME280;5651;50.926;4.718;2022-08-21T13:41:52;101497.88;;;27.47;47.51
11190;BME280;5651;50.926;4.718;2022-08-21T13:44:22;101495.47;;;28.10;46.27
11190;BME280;5651;50.926;4.718;2022-08-21T13:46:53;101488.75;;;28.56;45.21
11190;BME280;5651;50.926;4.718;2022-08-21T13:49:24;101481.19;;;29.37;43.28
11190;BME280;5651;50.926;4.718;2022-08-21T13:51:52;101485.59;;;29.73;42.40
11190;BME280;5651;50.926;4.718;2022-08-21T13:54:34;101491.72;;;29.76;39.79
11190;BME280;5651;50.926;4.718;2022-08-21T13:57:00;101474.44;;;29.91;40.75
11190;BME280;5651;50.926;4.718;2022-08-21T14:01:56;101482.09;;;30.43;40.66
11190;BME280;5651;50.926;4.718;2022-08-21T14:06:52;101470.19;;;29.64;40.80
11190;BME280;5651;50.926;4.718;2022-08-21T14:09:35;101466.28;;;29.20;41.50
11190;BME280;5651;50.926;4.718;2022-08-21T14:12:46;101472.09;;;29.14;42.46
11190;BME280;5651;50.926;4.718;2022-08-21T14:15:13;101487.66;;;28.84;41.72
11190;BME280;5651;50.926;4.718;2022-08-21T14:17:41;101480.69;;;28.69;42.72
11190;BME280;5651;50.926;4.718;2022-08-21T14:20:11;101480.59;;;28.44;43.41
11190;BME280;5651;50.926;4.718;2022-08-21T14:27:44;101483.16;;;28.07;43.10
11190;BME280;5651;50.926;4.718;2022-08-21T14:30:29;101484.34;;;28.29;44.26
11190;BME280;5651;50.926;4.718;2022-08-21T14:32:55;101490.44;;;28.18;43.60
11190;BME280;5651;50.926;4.718;2022-08-21T14:35:21;101476.09;;;28.45;44.62